Terminal Aerodrome Forecast
Issued by NWS

Home | Current Version | Previous Version | Text Only | Print | Product List | Glossary On
Versions: 1 2 3 4 5 6 7 8 9 10 11 12 13 14 15 16 17 18 19
697
FTUS46 KPDT 242327
TAFRDM
TAF
KRDM 242327Z 2500/2524 34016G23KT P6SM SKC
     FM250400 32006KT P6SM FEW035
     FM251000 16003KT P6SM SCT029
     FM251800 35010KT P6SM FEW045 SCT100=

USA.gov is the U.S. government's official web portal to all federal, state and local government web resources and services.